Wednesday, August 15, 2018, 4:41 AM EDT
Back to Local

KMQE, Milton Blue Hill Observ

Location: Milton, MA, United States Lat: 42.217
Local Time: 4:41 AM EDT ( 8:41 GMT) Lon: -71.117
Time Zone: US/Eastern Elev: 629 ft

Show me the last for .
Show Decoded

2018-08-15 03:56 METAR KMQE 150756Z AUTO 20007KT 21/21 A2982 RMK AO1 SLP103 T02060206 =
2018-08-15 02:56 METAR KMQE 150656Z AUTO 19007KT 21/21 A2983 RMK AO1 SLP107 T02060206 =
2018-08-15 01:56 METAR KMQE 150556Z AUTO 17006KT 21/21 A2983 RMK AO1 SLP107 T02060206 10233 20206
                 58008 =
2018-08-14 23:56 METAR KMQE 150356Z AUTO 20010KT 21/21 A2985 RMK AO1 SLP113 T02060206 =
2018-08-14 22:56 METAR KMQE 150256Z AUTO 19011KT 21/21 A2985 RMK AO1 SLP115 T02110206 51003 =
2018-08-14 21:56 METAR KMQE 150156Z AUTO 19013G18KT 21/20 A2985 RMK AO1 SLP115 T02110200 =
2018-08-14 20:56 METAR KMQE 150056Z AUTO 18009G18KT 22/20 A2986 RMK AO1 SLP119 T02220200 =
2018-08-14 19:56 METAR KMQE 142356Z AUTO 17013G17KT 23/20 A2985 RMK AO1 SLP112 T02330200 10283
                 20233 53002 =
2018-08-14 18:56 METAR KMQE 142256Z AUTO 17010G18KT 25/21 A2983 RMK AO1 SLP108 T02500206 =
2018-08-14 17:56 METAR KMQE 142156Z AUTO 19013KT 27/19 A2984 RMK AO1 SLP110 T02670194 =
2018-08-14 16:56 METAR KMQE 142056Z AUTO 20013G17KT 28/20 A2984 RMK AO1 SLP110 T02780200 56013 =
2018-08-14 15:56 METAR KMQE 141956Z AUTO 19009G15KT 28/22 A2984 RMK AO1 SLP112 T02780217 =
2018-08-14 14:56 METAR KMQE 141856Z AUTO 19009G15KT 28/21 A2987 RMK AO1 SLP120 T02830211 =
2018-08-14 13:56 METAR KMQE 141756Z AUTO VRB03KT 27/21 A2988 RMK AO1 SLP123 T02670206 10283 20217
                 58015 =
2018-08-14 12:56 METAR KMQE 141656Z AUTO 16007KT 27/22 A2990 RMK AO1 SLP129 T02720217 =
2018-08-14 11:56 METAR KMQE 141556Z AUTO VRB06KT 27/22 A2991 RMK AO1 SLP134 T02670222 =
2018-08-14 10:56 METAR KMQE 141456Z AUTO 12005KT 26/23 A2992 RMK AO1 SLP138 T02560233 57004 =
2018-08-14 09:56 METAR KMQE 141356Z AUTO 18004KT 24/22 A2993 RMK AO1 SLP142 T02390222 =
2018-08-14 08:56 METAR KMQE 141256Z AUTO 17004KT 22/22 A2993 RMK AO1 SLP141 T02220222 =
2018-08-14 07:56 METAR KMQE 141156Z AUTO 14005KT 22/22 A2993 RMK AO1 SLP144 70016 T02170217 10217
                 20206 51010 =
2018-08-14 06:56 METAR KMQE 141056Z AUTO 14005KT 21/21 A2993 RMK AO1 SLP141 T02110211 =
2018-08-14 05:56 METAR KMQE 140956Z AUTO 13004KT 21/21 A2992 RMK AO1 SLP140 T02060206 =
2018-08-14 04:56 METAR KMQE 140856Z AUTO 14004KT 21/21 A2991 RMK AO1 SLP135 T02060206 56011 =

Support USWX by starting your Amazon purchase here.